Time;durP1;ratioP1;P1;durP2;ratioP2;P2;SDS_P1;SDS_P2;PMS_P1;PMS_P2;Temp;Humidity;BMP_temperature;BMP_pressure;BME280_temperature;BME280_humidity;BME280_pressure;Samples;Min_cycle;Max_cycle;Signal;HPM_P1;HPM_P2
2022/03/22 00:01:27;;;;;;;24.80;14.40;;;12.60;61.40;;;;;;5070010;28;20036;-59
2022/03/22 00:03:53;;;;;;;23.67;13.63;;;12.60;61.50;;;;;;5088841;28;20040;-59
2022/03/22 00:06:19;;;;;;;24.70;13.48;;;12.50;61.50;;;;;;5080694;28;20475;-59
2022/03/22 00:08:45;;;;;;;25.83;14.82;;;12.50;61.60;;;;;;5072638;28;20463;-59
2022/03/22 00:11:12;;;;;;;28.17;14.85;;;12.50;61.70;;;;;;5078787;28;20360;-59
2022/03/22 00:13:38;;;;;;;28.33;17.02;;;12.40;61.70;;;;;;5079486;28;20024;-60
2022/03/22 00:16:05;;;;;;;23.55;15.52;;;12.50;61.90;;;;;;5084030;28;20102;-59
2022/03/22 00:18:31;;;;;;;24.33;14.93;;;12.40;61.90;;;;;;5080864;28;20035;-58
2022/03/22 00:20:57;;;;;;;23.63;14.65;;;12.30;61.90;;;;;;5096712;28;20554;-62
2022/03/22 00:23:24;;;;;;;25.73;15.00;;;12.30;62.00;;;;;;5093812;28;20483;-59
2022/03/22 00:25:50;;;;;;;26.65;15.95;;;12.30;62.00;;;;;;5088256;28;20077;-58
2022/03/22 00:28:16;;;;;;;25.08;15.52;;;12.20;62.20;;;;;;5087143;28;20028;-58
2022/03/22 00:30:42;;;;;;;24.92;14.15;;;12.20;62.30;;;;;;5087782;28;20370;-58
2022/03/22 00:33:08;;;;;;;26.30;14.98;;;12.20;62.40;;;;;;5086742;28;20083;-62
2022/03/22 00:35:36;;;;;;;26.27;14.55;;;12.10;62.40;;;;;;5081207;28;20036;-62
2022/03/22 00:38:08;;;;;;;24.58;15.25;;;12.10;62.50;;;;;;5082268;28;20028;-62
2022/03/22 00:40:34;;;;;;;25.10;15.23;;;12.00;62.50;;;;;;5080697;28;20027;-61
2022/03/22 00:43:01;;;;;;;24.77;15.43;;;12.00;62.70;;;;;;5086463;28;20024;-62
2022/03/22 00:45:32;;;;;;;24.77;14.48;;;12.00;62.80;;;;;;5081635;28;20024;-61
2022/03/22 00:47:59;;;;;;;24.67;14.93;;;11.90;62.80;;;;;;5090509;28;20020;-62
2022/03/22 00:50:30;;;;;;;23.55;14.40;;;11.90;62.90;;;;;;5090739;28;20035;-59
2022/03/22 00:52:57;;;;;;;28.70;13.77;;;11.90;63.00;;;;;;5080047;28;20522;-60
2022/03/22 00:55:26;;;;;;;23.10;13.88;;;11.80;63.00;;;;;;5082724;28;20537;-63
2022/03/22 00:57:53;;;;;;;23.52;14.20;;;11.80;63.10;;;;;;5079884;28;20528;-59
2022/03/22 01:00:20;;;;;;;26.27;13.75;;;11.70;63.10;;;;;;5091274;28;20553;-59
2022/03/22 01:02:49;;;;;;;26.20;13.70;;;11.70;63.30;;;;;;5090514;28;20461;-62
2022/03/22 01:05:19;;;;;;;24.30;13.88;;;11.70;63.40;;;;;;5089708;28;20334;-62
2022/03/22 01:07:47;;;;;;;21.00;13.38;;;11.60;63.50;;;;;;5077645;28;20502;-63
2022/03/22 01:10:15;;;;;;;21.55;14.43;;;11.60;63.50;;;;;;5071892;28;20055;-63
2022/03/22 01:12:43;;;;;;;23.27;13.43;;;11.60;63.60;;;;;;5072915;28;20044;-63
2022/03/22 01:15:15;;;;;;;24.63;14.40;;;11.50;63.60;;;;;;5081121;28;20499;-59
2022/03/22 01:17:45;;;;;;;21.35;13.32;;;11.50;63.70;;;;;;5083395;28;20521;-63
2022/03/22 01:20:12;;;;;;;26.90;13.57;;;11.50;63.80;;;;;;5080489;28;20435;-62
2022/03/22 01:22:39;;;;;;;22.10;13.43;;;11.40;63.90;;;;;;5091509;28;20059;-62
2022/03/22 01:25:10;;;;;;;24.55;13.95;;;11.40;64.00;;;;;;5093041;28;20391;-62
2022/03/22 01:27:36;;;;;;;21.45;12.98;;;11.40;64.10;;;;;;5087817;28;20506;-62
2022/03/22 01:30:07;;;;;;;26.08;13.52;;;11.40;64.10;;;;;;5083166;28;20027;-62
2022/03/22 01:32:34;;;;;;;20.42;12.48;;;11.40;64.40;;;;;;5072711;28;20348;-62
2022/03/22 01:35:05;;;;;;;20.92;12.82;;;11.30;64.30;;;;;;5082355;28;20032;-62
2022/03/22 01:37:31;;;;;;;21.58;12.73;;;11.30;64.30;;;;;;5086204;28;20035;-59
2022/03/22 01:39:57;;;;;;;20.55;13.52;;;11.30;64.40;;;;;;5072655;28;20050;-63
2022/03/22 01:42:24;;;;;;;27.73;13.20;;;11.20;64.40;;;;;;5090823;28;20490;-60
2022/03/22 01:44:51;;;;;;;21.30;13.55;;;11.20;64.40;;;;;;5090232;28;20017;-62
2022/03/22 01:47:19;;;;;;;22.73;13.90;;;11.20;64.60;;;;;;5091106;28;20031;-62
2022/03/22 01:49:46;;;;;;;18.55;12.02;;;11.20;64.60;;;;;;5075910;28;20064;-63
2022/03/22 01:52:15;;;;;;;21.20;13.27;;;11.10;64.50;;;;;;5086493;28;20356;-59
2022/03/22 01:54:42;;;;;;;20.48;13.30;;;11.10;64.60;;;;;;5079080;28;20024;-59
2022/03/22 01:57:08;;;;;;;24.33;12.90;;;11.00;64.90;;;;;;5087179;28;20120;-59
2022/03/22 01:59:34;;;;;;;23.33;12.80;;;11.00;64.60;;;;;;5072579;28;20028;-58
2022/03/22 02:07:31;;;;;;;20.83;12.27;;;10.90;64.80;;;;;;5071170;28;20057;-62
2022/03/22 02:09:57;;;;;;;23.52;13.73;;;10.90;64.90;;;;;;5074284;28;20024;-62
2022/03/22 02:12:23;;;;;;;20.17;12.50;;;10.90;65.00;;;;;;5070935;28;20441;-62
2022/03/22 02:14:49;;;;;;;21.17;13.05;;;10.80;65.00;;;;;;5070435;28;20029;-60
2022/03/22 02:17:15;;;;;;;20.33;11.90;;;10.70;65.00;;;;;;5070343;28;20094;-58
2022/03/22 02:19:41;;;;;;;20.45;11.88;;;10.80;65.10;;;;;;5071190;28;20028;-62
2022/03/22 02:22:11;;;;;;;24.05;12.00;;;10.70;65.20;;;;;;5077971;28;20025;-58
2022/03/22 02:24:37;;;;;;;22.48;12.50;;;10.70;65.20;;;;;;5089934;28;20439;-58
2022/03/22 02:27:03;;;;;;;19.75;12.07;;;10.70;65.20;;;;;;5072915;28;20039;-59
2022/03/22 02:29:29;;;;;;;19.67;13.55;;;10.70;65.40;;;;;;5081085;28;20024;-59
2022/03/22 02:31:55;;;;;;;21.92;13.07;;;10.60;65.30;;;;;;5100312;28;20028;-58
2022/03/22 02:34:20;;;;;;;22.13;12.88;;;10.60;65.30;;;;;;5089811;28;20117;-59
2022/03/22 02:36:46;;;;;;;23.80;13.75;;;10.60;65.50;;;;;;5090458;28;20052;-59
2022/03/22 02:39:12;;;;;;;20.95;12.45;;;10.50;65.50;;;;;;5081993;28;20112;-58
2022/03/22 02:41:38;;;;;;;21.42;12.20;;;10.50;65.60;;;;;;5069117;28;20028;-59
2022/03/22 02:44:04;;;;;;;26.67;12.65;;;10.50;65.60;;;;;;5069533;28;20094;-59
2022/03/22 02:46:30;;;;;;;22.83;13.23;;;10.40;65.60;;;;;;5083199;28;20046;-62
2022/03/22 02:48:56;;;;;;;22.27;12.95;;;10.40;65.70;;;;;;5089611;28;20107;-62
2022/03/22 02:51:22;;;;;;;21.85;12.70;;;10.40;65.70;;;;;;5088718;28;20028;-63
2022/03/22 02:53:47;;;;;;;25.23;13.35;;;10.40;65.80;;;;;;5077915;28;20059;-62
2022/03/22 02:56:13;;;;;;;20.85;12.95;;;10.40;66.00;;;;;;5083297;28;20067;-62
2022/03/22 02:58:39;;;;;;;23.02;13.48;;;10.30;66.00;;;;;;5083306;28;20368;-62
2022/03/22 03:01:05;;;;;;;23.98;12.77;;;10.30;66.00;;;;;;5081610;28;20107;-62
2022/03/22 03:03:32;;;;;;;19.70;12.13;;;10.20;66.00;;;;;;5067856;28;20466;-59
2022/03/22 03:05:59;;;;;;;22.80;12.73;;;10.20;66.10;;;;;;5074703;28;20028;-59
2022/03/22 03:08:26;;;;;;;24.27;13.25;;;10.20;66.10;;;;;;5073897;28;20032;-59
2022/03/22 03:10:53;;;;;;;24.23;13.45;;;10.20;66.10;;;;;;5072475;28;20031;-62
2022/03/22 03:13:19;;;;;;;20.25;12.25;;;10.10;66.70;;;;;;5076038;28;20028;-59
2022/03/22 03:15:46;;;;;;;21.50;12.88;;;10.10;66.30;;;;;;5073252;28;20451;-60
2022/03/22 03:18:13;;;;;;;24.27;13.77;;;10.10;66.30;;;;;;5089474;28;20479;-62
2022/03/22 03:20:39;;;;;;;22.52;12.90;;;10.00;66.40;;;;;;5073974;28;20080;-59
2022/03/22 03:23:05;;;;;;;23.10;13.25;;;10.00;66.50;;;;;;5079498;28;20036;-62
2022/03/22 03:25:31;;;;;;;24.90;13.43;;;10.00;66.60;;;;;;5088328;28;20355;-62
2022/03/22 03:27:56;;;;;;;20.48;12.65;;;10.00;66.50;;;;;;5083467;28;20029;-59
2022/03/22 03:30:22;;;;;;;21.05;12.80;;;10.00;66.50;;;;;;5078041;28;20028;-59
2022/03/22 03:32:48;;;;;;;20.05;12.75;;;9.90;66.50;;;;;;5073338;28;20056;-59
2022/03/22 03:35:14;;;;;;;24.92;13.18;;;9.90;66.60;;;;;;5090995;28;20027;-59
2022/03/22 03:37:44;;;;;;;20.85;12.20;;;9.90;66.70;;;;;;5092962;28;20078;-59
2022/03/22 03:40:10;;;;;;;21.17;12.77;;;9.80;66.70;;;;;;5071535;28;20055;-59
2022/03/22 03:42:43;;;;;;;20.10;11.95;;;9.80;66.70;;;;;;5086559;28;20036;-59
2022/03/22 03:47:55;;;;;;;20.17;12.30;;;9.80;66.70;;;;;;5074543;28;20389;-59
2022/03/22 03:50:21;;;;;;;20.15;12.38;;;9.70;66.80;;;;;;5080156;28;20372;-60
2022/03/22 03:52:47;;;;;;;24.33;12.50;;;9.70;66.90;;;;;;5084689;28;20033;-60
2022/03/22 03:55:13;;;;;;;20.50;12.82;;;9.70;67.00;;;;;;5083957;28;20035;-59
2022/03/22 03:57:38;;;;;;;22.08;12.63;;;9.60;66.90;;;;;;5086463;28;20036;-58
2022/03/22 04:00:07;;;;;;;22.50;12.73;;;9.60;67.00;;;;;;5082824;28;20047;-60
2022/03/22 04:02:32;;;;;;;23.90;12.35;;;9.60;67.10;;;;;;5088249;28;20024;-60
2022/03/22 04:04:58;;;;;;;20.25;13.20;;;9.60;67.10;;;;;;5085176;28;20035;-59
2022/03/22 04:07:26;;;;;;;20.75;13.32;;;9.60;67.20;;;;;;5077269;28;20566;-58
2022/03/22 04:09:54;;;;;;;21.13;13.05;;;9.50;67.20;;;;;;5077876;28;20024;-62
2022/03/22 04:12:22;;;;;;;21.20;12.88;;;9.50;67.30;;;;;;5086376;28;20028;-63
2022/03/22 04:14:50;;;;;;;22.83;13.48;;;9.50;67.40;;;;;;5083399;28;20196;-58
2022/03/22 04:17:17;;;;;;;26.48;12.90;;;9.50;67.50;;;;;;5088478;28;20024;-58
2022/03/22 04:19:43;;;;;;;22.38;12.43;;;9.40;67.50;;;;;;5080835;28;20121;-62
2022/03/22 04:22:09;;;;;;;22.17;13.38;;;9.40;67.50;;;;;;5083360;28;20016;-61
2022/03/22 04:24:35;;;;;;;23.02;13.77;;;9.40;67.70;;;;;;5092326;28;20146;-62
2022/03/22 04:32:43;;;;;;;23.58;13.68;;;9.30;67.70;;;;;;5088154;28;20117;-62
2022/03/22 04:35:14;;;;;;;22.55;12.93;;;9.20;67.60;;;;;;5081975;28;20036;-62
2022/03/22 04:37:40;;;;;;;22.30;12.75;;;9.20;67.80;;;;;;5087704;28;20060;-62
2022/03/22 04:40:07;;;;;;;22.70;13.85;;;9.20;67.80;;;;;;5089709;28;20032;-59
2022/03/22 04:42:33;;;;;;;22.33;13.00;;;9.20;68.00;;;;;;5089456;28;20481;-62
2022/03/22 04:44:59;;;;;;;23.50;12.98;;;9.10;68.00;;;;;;5084870;28;20024;-62
2022/03/22 04:47:26;;;;;;;21.00;13.05;;;9.10;68.10;;;;;;5083742;28;20573;-62
2022/03/22 04:49:53;;;;;;;28.80;14.18;;;9.10;68.10;;;;;;5087561;28;20035;-59
2022/03/22 04:57:48;;;;;;;26.35;13.73;;;9.00;68.20;;;;;;5084725;28;20406;-63
2022/03/22 05:00:14;;;;;;;22.40;13.20;;;9.00;68.40;;;;;;5088321;28;20119;-63
2022/03/22 05:02:40;;;;;;;19.38;11.63;;;9.00;68.40;;;;;;5086839;28;20040;-63
2022/03/22 05:05:06;;;;;;;26.02;13.80;;;9.00;68.40;;;;;;5091220;28;20059;-60
2022/03/22 05:07:31;;;;;;;22.40;12.52;;;8.90;68.40;;;;;;5090125;28;20035;-59
2022/03/22 05:09:57;;;;;;;24.00;13.25;;;8.90;68.60;;;;;;5087236;28;20407;-60
2022/03/22 05:12:23;;;;;;;24.60;13.02;;;8.90;68.60;;;;;;5087780;28;20115;-59
2022/03/22 05:14:50;;;;;;;23.73;13.15;;;8.90;68.70;;;;;;5088671;28;20497;-59
2022/03/22 05:17:23;;;;;;;28.67;13.50;;;8.90;68.80;;;;;;5089724;28;20042;-59
2022/03/22 05:19:50;;;;;;;21.10;12.57;;;8.90;69.00;;;;;;5076470;28;20024;-59
2022/03/22 05:22:17;;;;;;;22.27;13.18;;;8.90;69.10;;;;;;5082777;28;20020;-60
2022/03/22 05:24:44;;;;;;;23.60;14.48;;;8.90;69.30;;;;;;5088392;28;20101;-59
2022/03/22 05:27:12;;;;;;;24.38;12.80;;;8.90;69.40;;;;;;5085140;28;20024;-59
2022/03/22 05:29:37;;;;;;;23.48;13.63;;;8.90;69.50;;;;;;5087268;28;20288;-59
2022/03/22 05:32:04;;;;;;;23.85;13.10;;;8.90;69.70;;;;;;5090593;28;20028;-59
2022/03/22 05:34:30;;;;;;;20.65;13.30;;;8.90;69.80;;;;;;5087458;28;20056;-63
2022/03/22 05:36:56;;;;;;;21.52;13.00;;;8.90;70.00;;;;;;5089980;28;20036;-63
2022/03/22 05:39:21;;;;;;;23.60;14.13;;;8.90;70.10;;;;;;5087959;28;20032;-62
2022/03/22 05:41:47;;;;;;;23.08;13.23;;;8.90;70.30;;;;;;5088887;28;20028;-60
2022/03/22 05:44:13;;;;;;;22.13;13.30;;;8.90;70.40;;;;;;5089116;28;20032;-59
2022/03/22 05:46:40;;;;;;;23.35;12.65;;;8.90;70.50;;;;;;5089795;28;20421;-60
2022/03/22 05:49:08;;;;;;;26.05;12.02;;;8.90;70.70;;;;;;5087629;28;20028;-59
2022/03/22 05:51:36;;;;;;;21.45;13.55;;;8.90;70.80;;;;;;5090200;28;20095;-59
2022/03/22 05:54:02;;;;;;;22.17;14.60;;;8.90;71.00;;;;;;5096165;28;20114;-63
2022/03/22 05:56:27;;;;;;;23.23;12.50;;;9.00;71.80;;;;;;5093148;28;20397;-59
2022/03/22 05:58:53;;;;;;;26.92;14.25;;;9.00;71.30;;;;;;5087143;28;20032;-62
2022/03/22 06:01:20;;;;;;;24.98;13.98;;;9.00;71.40;;;;;;5087635;28;20032;-63
2022/03/22 06:03:46;;;;;;;25.42;13.90;;;9.00;71.60;;;;;;5087872;28;20032;-59
2022/03/22 06:06:11;;;;;;;26.83;13.57;;;9.10;71.80;;;;;;5089809;28;20485;-59
2022/03/22 06:08:37;;;;;;;34.40;21.95;;;9.10;71.90;;;;;;5088978;28;20020;-63
2022/03/22 06:11:03;;;;;;;27.42;19.10;;;9.10;71.90;;;;;;5088283;28;20032;-62
2022/03/22 06:13:28;;;;;;;30.20;21.83;;;9.10;71.90;;;;;;5087084;28;20016;-63
2022/03/22 06:15:55;;;;;;;30.70;22.67;;;9.20;72.20;;;;;;5089570;28;20082;-60
2022/03/22 06:18:21;;;;;;;29.17;21.77;;;9.20;72.30;;;;;;5091562;28;20024;-62
2022/03/22 06:20:47;;;;;;;29.27;22.45;;;9.20;72.40;;;;;;5085689;28;20020;-62
2022/03/22 06:23:14;;;;;;;30.23;23.27;;;9.30;72.50;;;;;;5098240;28;20036;-62
2022/03/22 06:25:41;;;;;;;32.70;23.45;;;9.30;72.50;;;;;;5091391;28;20024;-63
2022/03/22 06:28:14;;;;;;;34.45;23.52;;;9.40;72.60;;;;;;5094829;28;20023;-59
2022/03/22 06:30:40;;;;;;;30.27;20.80;;;9.40;72.60;;;;;;5091612;28;20038;-60
2022/03/22 06:33:13;;;;;;;30.58;22.85;;;9.50;72.40;;;;;;5089348;28;20135;-60
2022/03/22 06:35:39;;;;;;;;;;;9.50;72.30;;;;;;5086562;28;20334;-60
2022/03/22 06:38:05;;;;;;;22.42;14.93;;;9.60;72.10;;;;;;5078982;28;20138;-60
2022/03/22 06:40:33;;;;;;;27.77;16.73;;;9.60;72.10;;;;;;5085962;28;20036;-59
2022/03/22 06:43:02;;;;;;;26.73;18.45;;;9.70;72.00;;;;;;5086881;28;20118;-59
2022/03/22 06:45:27;;;;;;;23.73;16.92;;;9.70;71.70;;;;;;5086530;28;20437;-59
2022/03/22 06:47:54;;;;;;;26.75;16.95;;;9.80;71.40;;;;;;5089036;28;20024;-59
2022/03/22 06:50:20;;;;;;;24.25;17.83;;;9.90;71.20;;;;;;5087619;28;20424;-59
2022/03/22 06:52:46;;;;;;;22.85;17.38;;;9.90;70.80;;;;;;5097044;28;20070;-59
2022/03/22 06:55:16;;;;;;;26.38;19.33;;;10.00;70.50;;;;;;5086476;28;20382;-59
2022/03/22 06:57:42;;;;;;;23.50;14.95;;;10.10;70.20;;;;;;5086001;28;20106;-61
2022/03/22 07:00:10;;;;;;;26.30;17.05;;;10.20;70.00;;;;;;5087182;28;20028;-59
2022/03/22 07:02:39;;;;;;;25.48;20.17;;;10.30;69.90;;;;;;5082792;28;20046;-61
2022/03/22 07:05:06;;;;;;;28.95;20.70;;;10.30;69.60;;;;;;5087745;28;20039;-59
2022/03/22 07:07:32;;;;;;;26.08;21.13;;;10.40;69.40;;;;;;5085193;28;20024;-61
2022/03/22 07:09:58;;;;;;;32.88;20.10;;;10.50;69.20;;;;;;5088460;28;20051;-61
2022/03/22 07:12:24;;;;;;;25.38;19.50;;;10.50;69.00;;;;;;5084503;28;20024;-62
2022/03/22 07:14:50;;;;;;;26.88;20.20;;;10.60;68.60;;;;;;5087048;28;20119;-61
2022/03/22 07:17:15;;;;;;;26.85;20.15;;;10.60;68.50;;;;;;5070071;28;20119;-61
2022/03/22 07:19:41;;;;;;;29.27;21.77;;;10.70;68.00;;;;;;5090819;28;20376;-60
2022/03/22 07:22:07;;;;;;;27.10;21.27;;;10.70;67.80;;;;;;5096977;28;20115;-60
2022/03/22 07:24:34;;;;;;;30.70;20.27;;;10.70;67.40;;;;;;5088601;28;20458;-61
2022/03/22 07:27:00;;;;;;;26.77;20.38;;;10.80;67.10;;;;;;5090094;28;20027;-59
2022/03/22 07:29:25;;;;;;;24.88;18.63;;;10.90;66.90;;;;;;5088467;28;20493;-59
2022/03/22 07:31:51;;;;;;;27.25;21.05;;;10.90;66.50;;;;;;5091482;28;20107;-57
2022/03/22 07:34:19;;;;;;;27.85;20.77;;;10.90;65.90;;;;;;5091931;28;20097;-60
2022/03/22 07:36:46;;;;;;;25.55;19.67;;;10.90;65.40;;;;;;5087389;28;20885;-58
2022/03/22 07:39:13;;;;;;;25.95;19.17;;;10.90;65.40;;;;;;5084946;28;20089;-57
2022/03/22 07:41:43;;;;;;;26.52;18.63;;;11.00;65.10;;;;;;5084808;28;20024;-61
2022/03/22 07:44:12;;;;;;;25.08;19.77;;;11.00;64.70;;;;;;5087829;28;20043;-58
2022/03/22 07:46:37;;;;;;;26.98;19.98;;;11.10;64.40;;;;;;5088941;28;20152;-58
2022/03/22 07:54:33;;;;;;;27.17;19.30;;;11.20;63.70;;;;;;5097831;28;20093;-61
2022/03/22 07:56:58;;;;;;;23.30;18.10;;;11.30;62.70;;;;;;5090616;28;20036;-59
2022/03/22 07:59:25;;;;;;;26.85;19.75;;;11.30;62.30;;;;;;5091923;28;20273;-58
2022/03/22 08:01:51;;;;;;;25.85;18.77;;;11.40;61.70;;;;;;5084369;28;20078;-61
2022/03/22 08:04:17;;;;;;;22.85;17.77;;;11.40;61.50;;;;;;5085872;28;20475;-58
2022/03/22 08:06:43;;;;;;;26.45;18.00;;;11.50;61.00;;;;;;5093206;28;20036;-61
2022/03/22 08:09:09;;;;;;;28.77;18.65;;;11.50;60.80;;;;;;5088686;28;20022;-58
2022/03/22 08:11:36;;;;;;;20.70;17.15;;;11.60;60.90;;;;;;5101748;28;20028;-58
2022/03/22 08:14:04;;;;;;;26.05;19.45;;;11.70;60.60;;;;;;5099745;28;20024;-61
2022/03/22 08:16:30;;;;;;;25.02;19.02;;;11.70;59.50;;;;;;5082016;28;20047;-61
2022/03/22 08:18:55;;;;;;;23.50;17.30;;;11.70;59.10;;;;;;5084554;28;20047;-61
2022/03/22 08:21:21;;;;;;;23.15;17.83;;;11.80;59.20;;;;;;5088134;28;20478;-61
2022/03/22 08:23:47;;;;;;;24.65;18.67;;;11.90;59.00;;;;;;5071021;28;20028;-61
2022/03/22 08:26:16;;;;;;;21.23;17.08;;;12.00;58.70;;;;;;5082276;28;20479;-61
2022/03/22 08:28:45;;;;;;;22.50;17.65;;;12.00;59.30;;;;;;5075766;28;20024;-61
2022/03/22 08:31:13;;;;;;;22.33;17.10;;;12.10;57.90;;;;;;5085871;28;20123;-61
2022/03/22 08:33:39;;;;;;;25.23;18.35;;;12.20;57.60;;;;;;5081256;28;20076;-56
2022/03/22 08:36:05;;;;;;;24.80;18.10;;;12.20;56.80;;;;;;5082251;28;20063;-58
2022/03/22 08:38:30;;;;;;;24.38;18.02;;;12.20;56.30;;;;;;5084037;28;20020;-58
2022/03/22 08:40:56;;;;;;;21.60;17.80;;;12.30;56.30;;;;;;5071428;28;20556;-62
2022/03/22 08:43:26;;;;;;;24.13;17.40;;;12.30;56.30;;;;;;5086519;28;20058;-61
2022/03/22 08:45:53;;;;;;;21.90;17.60;;;12.40;55.90;;;;;;5074234;28;20028;-61
2022/03/22 08:48:20;;;;;;;22.02;17.10;;;12.40;56.60;;;;;;5078024;28;20086;-62
2022/03/22 08:50:51;;;;;;;21.80;17.05;;;12.50;55.90;;;;;;5087920;28;20032;-58
2022/03/22 08:53:20;;;;;;;24.13;18.13;;;12.60;55.70;;;;;;5070719;28;20021;-58
2022/03/22 08:55:46;;;;;;;24.58;17.45;;;12.70;55.20;;;;;;5075514;28;20489;-58
2022/03/22 08:58:12;;;;;;;23.85;17.58;;;12.70;55.20;;;;;;5075799;28;20035;-61
2022/03/22 09:00:38;;;;;;;22.05;16.83;;;12.80;55.10;;;;;;5099301;28;20040;-58
2022/03/22 09:03:05;;;;;;;27.70;19.25;;;12.90;55.50;;;;;;5075422;28;20052;-58
2022/03/22 09:08:16;;;;;;;23.42;18.38;;;13.00;55.20;;;;;;5075221;28;20046;-61
2022/03/22 09:10:42;;;;;;;23.23;17.60;;;13.10;55.40;;;;;;5076116;28;20422;-61
2022/03/22 09:13:08;;;;;;;24.48;18.35;;;13.30;55.60;;;;;;5076943;28;20043;-61
2022/03/22 09:15:37;;;;;;;29.02;18.73;;;13.30;55.00;;;;;;5089014;28;20047;-61
2022/03/22 09:18:04;;;;;;;24.17;17.63;;;13.40;55.40;;;;;;5073705;28;20031;-61
2022/03/22 09:20:32;;;;;;;26.77;19.40;;;13.50;55.60;;;;;;5071220;28;20485;-61
2022/03/22 09:23:00;;;;;;;25.30;19.50;;;13.70;54.90;;;;;;5070057;28;20171;-62
2022/03/22 09:25:27;;;;;;;24.30;18.95;;;13.70;55.30;;;;;;5069789;28;20430;-61
2022/03/22 09:27:54;;;;;;;22.95;17.80;;;13.80;54.90;;;;;;5074268;28;20020;-58
2022/03/22 09:30:20;;;;;;;20.90;15.95;;;13.90;55.00;;;;;;5071350;28;20024;-58
2022/03/22 09:32:46;;;;;;;23.10;16.45;;;14.00;55.00;;;;;;5084847;28;20469;-58
2022/03/22 09:35:13;;;;;;;21.38;16.15;;;14.10;54.80;;;;;;5089126;28;20092;-59
2022/03/22 09:37:44;;;;;;;21.67;16.65;;;14.20;54.90;;;;;;5082489;28;20028;-59
2022/03/22 09:40:12;;;;;;;23.17;16.83;;;14.40;55.10;;;;;;5080826;28;20024;-58
2022/03/22 09:42:42;;;;;;;26.02;18.60;;;14.50;53.80;;;;;;5083952;28;20036;-59
2022/03/22 09:45:09;;;;;;;22.15;17.77;;;14.60;53.10;;;;;;5087573;28;20705;-59
2022/03/22 09:47:36;;;;;;;22.52;16.63;;;14.70;52.30;;;;;;5078131;28;20028;-59
2022/03/22 09:50:10;;;;;;;18.90;15.48;;;14.80;52.50;;;;;;5079376;28;20083;-59
2022/03/22 09:52:37;;;;;;;22.63;16.25;;;14.90;52.80;;;;;;5070181;28;20116;-61
2022/03/22 09:55:08;;;;;;;26.98;17.48;;;15.00;53.00;;;;;;5075193;28;20435;-62
2022/03/22 09:57:36;;;;;;;20.30;15.97;;;15.10;52.10;;;;;;5088777;28;20032;-62
2022/03/22 10:00:03;;;;;;;20.70;16.52;;;15.20;52.10;;;;;;5073403;28;20025;-61
2022/03/22 10:02:34;;;;;;;18.73;15.30;;;15.30;51.90;;;;;;5085777;28;20107;-61
2022/03/22 10:05:00;;;;;;;22.92;17.42;;;15.40;51.90;;;;;;5077331;28;20039;-61
2022/03/22 10:07:28;;;;;;;20.80;16.23;;;15.50;51.80;;;;;;5074324;28;20040;-61
2022/03/22 10:09:58;;;;;;;19.38;15.93;;;15.60;51.50;;;;;;5081650;28;20503;-61
2022/03/22 10:12:42;;;;;;;23.08;16.92;;;15.70;51.40;;;;;;5082224;28;20028;-61
2022/03/22 10:15:15;;;;;;;22.27;16.45;;;15.80;50.80;;;;;;5072730;28;20479;-62
2022/03/22 10:17:43;;;;;;;22.45;16.83;;;15.90;50.30;;;;;;5076871;28;20028;-61
2022/03/22 10:20:21;;;;;;;23.48;16.88;;;16.00;50.40;;;;;;5081837;28;20097;-61
2022/03/22 10:22:55;;;;;;;22.08;16.48;;;16.10;50.50;;;;;;5084444;28;20028;-61
2022/03/22 10:25:21;;;;;;;20.58;15.80;;;16.20;50.20;;;;;;5081484;28;20035;-61
2022/03/22 10:27:46;;;;;;;18.65;15.60;;;16.40;50.10;;;;;;5086291;28;20319;-62
2022/03/22 10:30:12;;;;;;;23.13;17.33;;;16.50;49.90;;;;;;5083785;28;20029;-62
2022/03/22 10:32:44;;;;;;;21.98;18.17;;;16.60;49.40;;;;;;5077751;28;20142;-61
2022/03/22 10:35:17;;;;;;;24.67;19.00;;;16.60;48.30;;;;;;5079415;28;20032;-62
2022/03/22 10:37:58;;;;;;;20.73;16.30;;;16.70;48.90;;;;;;5087924;28;20028;-58
2022/03/22 10:40:40;;;;;;;18.48;15.63;;;16.80;49.60;;;;;;5087933;28;20024;-61
2022/03/22 10:43:12;;;;;;;20.45;15.90;;;17.00;49.00;;;;;;5072969;28;20032;-61
2022/03/22 10:45:42;;;;;;;25.83;18.67;;;17.10;48.60;;;;;;5080370;28;20105;-58
2022/03/22 10:48:08;;;;;;;21.13;17.45;;;17.30;47.70;;;;;;5080260;28;20071;-59
2022/03/22 10:50:38;;;;;;;26.52;16.98;;;17.40;47.60;;;;;;5076692;28;20048;-59
2022/03/22 10:53:04;;;;;;;24.00;16.65;;;17.50;48.30;;;;;;5071142;28;20085;-61
2022/03/22 10:55:30;;;;;;;21.50;16.27;;;17.60;47.60;;;;;;5069609;28;20491;-58
2022/03/22 10:57:58;;;;;;;19.83;15.27;;;17.70;47.50;;;;;;5069212;28;20064;-59
2022/03/22 11:00:25;;;;;;;18.42;14.75;;;17.90;47.30;;;;;;5071621;28;20020;-58
2022/03/22 11:02:53;;;;;;;22.55;15.20;;;17.90;46.80;;;;;;5081293;28;20028;-61
2022/03/22 11:05:20;;;;;;;22.10;15.30;;;18.10;46.40;;;;;;5083441;28;20508;-62
2022/03/22 11:07:53;;;;;;;22.65;17.13;;;18.20;45.90;;;;;;5078893;28;20031;-58
2022/03/22 11:10:30;;;;;;;21.38;16.77;;;18.30;44.30;;;;;;5080289;28;20486;-59
2022/03/22 11:13:00;;;;;;;20.55;16.48;;;18.30;44.60;;;;;;5083753;28;20059;-58
2022/03/22 11:15:39;;;;;;;20.63;16.13;;;18.40;44.40;;;;;;5074758;28;20032;-62
2022/03/22 11:18:07;;;;;;;21.23;15.90;;;18.50;44.90;;;;;;5080974;28;20095;-62
2022/03/22 11:20:33;;;;;;;19.45;14.65;;;18.60;44.40;;;;;;5071867;28;20021;-62
2022/03/22 11:23:00;;;;;;;19.80;15.20;;;18.80;44.00;;;;;;5082498;28;20036;-62
2022/03/22 11:25:36;;;;;;;18.85;15.13;;;18.80;44.20;;;;;;5082542;28;20025;-62
2022/03/22 11:28:07;;;;;;;21.52;16.50;;;18.90;43.90;;;;;;5078736;28;20031;-62
2022/03/22 11:30:35;;;;;;;21.25;15.38;;;19.00;44.10;;;;;;5073123;28;20040;-62
2022/03/22 11:35:47;;;;;;;21.63;16.23;;;19.30;43.40;;;;;;5078327;28;20195;-62
2022/03/22 11:38:33;;;;;;;20.17;15.63;;;19.40;43.10;;;;;;5088556;28;20399;-62
2022/03/22 11:43:50;;;;;;;21.58;15.93;;;19.60;43.40;;;;;;5059033;28;20125;-62
2022/03/22 11:46:16;;;;;;;23.23;17.02;;;19.70;42.90;;;;;;5071751;28;20033;-62
2022/03/22 11:48:41;;;;;;;22.35;15.90;;;19.80;42.60;;;;;;5072082;28;20033;-61
2022/03/22 11:51:09;;;;;;;20.88;15.93;;;19.90;42.70;;;;;;5077191;28;20040;-62
2022/03/22 11:53:42;;;;;;;19.48;16.42;;;19.90;42.80;;;;;;5087999;28;20478;-62
2022/03/22 11:56:10;;;;;;;21.48;16.58;;;19.90;42.90;;;;;;5083975;28;20109;-62
2022/03/22 11:58:35;;;;;;;22.02;15.73;;;20.00;42.10;;;;;;5087951;28;20020;-59
2022/03/22 12:01:03;;;;;;;20.70;16.25;;;20.10;42.40;;;;;;5084913;28;20043;-61
2022/03/22 12:03:35;;;;;;;23.38;15.73;;;20.10;42.00;;;;;;5086302;28;20031;-61
2022/03/22 12:06:13;;;;;;;22.80;16.02;;;20.20;41.60;;;;;;5089872;28;20376;-61
2022/03/22 12:08:41;;;;;;;24.73;16.77;;;20.30;42.10;;;;;;5075097;28;20032;-61
2022/03/22 12:11:11;;;;;;;18.25;15.30;;;20.40;41.70;;;;;;5084188;28;20031;-61
2022/03/22 12:13:50;;;;;;;22.75;16.83;;;20.60;41.90;;;;;;5074650;28;20064;-58
2022/03/22 12:19:50;;;;;;;19.75;16.00;;;20.80;40.70;;;;;;5013428;27;1994532;-60
2022/03/22 12:22:16;;;;;;;23.73;17.75;;;20.90;41.10;;;;;;5065621;28;20140;-59
2022/03/22 12:24:44;;;;;;;17.02;15.02;;;20.80;40.30;;;;;;5066040;28;20033;-59
2022/03/22 12:27:11;;;;;;;21.02;16.00;;;20.80;41.20;;;;;;5065976;28;20029;-60
2022/03/22 12:29:41;;;;;;;19.30;16.35;;;20.90;41.30;;;;;;5066484;28;20490;-60
2022/03/22 12:32:16;;;;;;;25.42;16.40;;;21.00;40.60;;;;;;5066044;28;20035;-60
2022/03/22 12:34:43;;;;;;;19.02;14.95;;;21.10;40.50;;;;;;5031828;28;20029;-59
2022/03/22 12:37:11;;;;;;;19.05;15.52;;;21.30;40.50;;;;;;5066110;28;20479;-59
2022/03/22 12:39:37;;;;;;;16.02;14.32;;;21.40;40.60;;;;;;5066355;28;20063;-59
2022/03/22 12:42:04;;;;;;;20.80;16.35;;;21.50;40.50;;;;;;5065137;28;20112;-59
2022/03/22 12:44:30;;;;;;;21.10;16.63;;;21.50;40.10;;;;;;5057985;28;20017;-59
2022/03/22 12:46:56;;;;;;;20.08;14.95;;;21.60;39.60;;;;;;5046310;28;20045;-59
2022/03/22 13:40:05;;;;;;;19.92;15.40;;;21.90;35.30;;;;;;5106970;27;20112;-61
2022/03/22 13:42:31;;;;;;;24.45;16.90;;;21.90;35.60;;;;;;5105901;28;20031;-61
2022/03/22 13:52:43;;;;;;;20.73;15.85;;;22.50;33.70;;;;;;5125756;27;20108;-57
2022/03/22 13:55:13;;;;;;;20.55;15.52;;;22.60;34.10;;;;;;5127355;28;20036;-58
2022/03/22 13:57:39;;;;;;;23.35;16.00;;;22.70;34.10;;;;;;5127051;28;20024;-58
2022/03/22 14:00:06;;;;;;;17.45;13.77;;;22.80;33.00;;;;;;5113732;27;20028;-61
2022/03/22 14:02:32;;;;;;;18.25;14.63;;;22.90;33.50;;;;;;5105422;27;20043;-61
2022/03/22 14:04:57;;;;;;;20.65;14.55;;;23.10;33.10;;;;;;5112477;27;20024;-61
2022/03/22 14:07:23;;;;;;;19.70;15.00;;;23.30;32.80;;;;;;5116448;27;20085;-61